sensor_id;sensor_type;location;lat;lon;timestamp;P1;durP1;ratioP1;P2;durP2;ratioP2
58661;SDS011;44432;49.786;22.760;2023-07-29T00:00:00;11.00;;;4.10;;
58661;SDS011;44432;49.786;22.760;2023-07-29T00:02:31;8.00;;;3.60;;
58661;SDS011;44432;49.786;22.760;2023-07-29T00:05:02;13.30;;;4.60;;
58661;SDS011;44432;49.786;22.760;2023-07-29T00:07:33;13.10;;;5.00;;
58661;SDS011;44432;49.786;22.760;2023-07-29T00:10:04;16.50;;;6.20;;
58661;SDS011;44432;49.786;22.760;2023-07-29T00:12:36;8.70;;;4.00;;
58661;SDS011;44432;49.786;22.760;2023-07-29T00:15:07;8.40;;;3.40;;
58661;SDS011;44432;49.786;22.760;2023-07-29T00:17:38;13.80;;;5.30;;
58661;SDS011;44432;49.786;22.760;2023-07-29T00:20:09;7.60;;;4.20;;
58661;SDS011;44432;49.786;22.760;2023-07-29T00:22:40;11.40;;;6.30;;
58661;SDS011;44432;49.786;22.760;2023-07-29T00:25:11;17.90;;;10.10;;
58661;SDS011;44432;49.786;22.760;2023-07-29T00:27:41;8.80;;;4.30;;
58661;SDS011;44432;49.786;22.760;2023-07-29T00:30:12;5.80;;;3.10;;
58661;SDS011;44432;49.786;22.760;2023-07-29T00:32:43;5.30;;;3.30;;
58661;SDS011;44432;49.786;22.760;2023-07-29T00:35:13;4.00;;;2.90;;
58661;SDS011;44432;49.786;22.760;2023-07-29T00:37:44;5.70;;;2.90;;
58661;SDS011;44432;49.786;22.760;2023-07-29T00:40:15;4.80;;;3.20;;
58661;SDS011;44432;49.786;22.760;2023-07-29T00:42:50;6.80;;;3.30;;
58661;SDS011;44432;49.786;22.760;2023-07-29T00:45:20;5.60;;;3.30;;
58661;SDS011;44432;49.786;22.760;2023-07-29T00:47:52;4.80;;;3.20;;
58661;SDS011;44432;49.786;22.760;2023-07-29T00:50:23;4.90;;;3.60;;
58661;SDS011;44432;49.786;22.760;2023-07-29T00:52:55;8.00;;;3.40;;
58661;SDS011;44432;49.786;22.760;2023-07-29T00:55:26;8.00;;;3.60;;
58661;SDS011;44432;49.786;22.760;2023-07-29T00:57:58;5.90;;;3.30;;
58661;SDS011;44432;49.786;22.760;2023-07-29T01:00:28;7.60;;;3.70;;
58661;SDS011;44432;49.786;22.760;2023-07-29T01:02:59;7.80;;;3.40;;
58661;SDS011;44432;49.786;22.760;2023-07-29T01:05:32;6.60;;;3.70;;
58661;SDS011;44432;49.786;22.760;2023-07-29T01:08:10;6.50;;;3.40;;
58661;SDS011;44432;49.786;22.760;2023-07-29T01:10:52;7.30;;;3.10;;
58661;SDS011;44432;49.786;22.760;2023-07-29T01:13:28;5.00;;;3.20;;
58661;SDS011;44432;49.786;22.760;2023-07-29T01:16:07;5.00;;;2.90;;
58661;SDS011;44432;49.786;22.760;2023-07-29T01:18:43;5.30;;;3.30;;
58661;SDS011;44432;49.786;22.760;2023-07-29T01:21:17;5.10;;;3.00;;
58661;SDS011;44432;49.786;22.760;2023-07-29T01:23:48;4.90;;;3.20;;
58661;SDS011;44432;49.786;22.760;2023-07-29T01:26:26;5.90;;;3.60;;
58661;SDS011;44432;49.786;22.760;2023-07-29T01:28:57;10.50;;;8.20;;
58661;SDS011;44432;49.786;22.760;2023-07-29T01:31:30;24.20;;;16.70;;
58661;SDS011;44432;49.786;22.760;2023-07-29T01:34:07;17.40;;;8.50;;
58661;SDS011;44432;49.786;22.760;2023-07-29T01:36:42;16.40;;;7.30;;
58661;SDS011;44432;49.786;22.760;2023-07-29T01:39:15;11.70;;;6.00;;
58661;SDS011;44432;49.786;22.760;2023-07-29T01:41:50;7.50;;;3.90;;
58661;SDS011;44432;49.786;22.760;2023-07-29T01:44:20;6.20;;;3.70;;
58661;SDS011;44432;49.786;22.760;2023-07-29T01:46:51;5.70;;;3.70;;
58661;SDS011;44432;49.786;22.760;2023-07-29T01:49:24;8.10;;;3.80;;
58661;SDS011;44432;49.786;22.760;2023-07-29T01:51:54;6.20;;;3.70;;
58661;SDS011;44432;49.786;22.760;2023-07-29T01:54:25;4.70;;;3.00;;
58661;SDS011;44432;49.786;22.760;2023-07-29T01:56:56;7.80;;;3.40;;
58661;SDS011;44432;49.786;22.760;2023-07-29T01:59:26;8.00;;;3.50;;
58661;SDS011;44432;49.786;22.760;2023-07-29T02:01:57;4.70;;;3.20;;
58661;SDS011;44432;49.786;22.760;2023-07-29T02:04:27;6.00;;;3.40;;
58661;SDS011;44432;49.786;22.760;2023-07-29T02:06:58;6.40;;;3.10;;
58661;SDS011;44432;49.786;22.760;2023-07-29T02:09:28;3.80;;;3.10;;
58661;SDS011;44432;49.786;22.760;2023-07-29T02:11:59;5.30;;;3.40;;
58661;SDS011;44432;49.786;22.760;2023-07-29T02:14:30;5.30;;;3.00;;
58661;SDS011;44432;49.786;22.760;2023-07-29T02:17:01;3.60;;;2.70;;
58661;SDS011;44432;49.786;22.760;2023-07-29T02:19:31;4.20;;;3.30;;
58661;SDS011;44432;49.786;22.760;2023-07-29T02:22:02;5.40;;;4.40;;
58661;SDS011;44432;49.786;22.760;2023-07-29T02:24:33;6.70;;;5.20;;
58661;SDS011;44432;49.786;22.760;2023-07-29T02:27:04;8.20;;;4.40;;
58661;SDS011;44432;49.786;22.760;2023-07-29T02:29:35;6.10;;;3.60;;
58661;SDS011;44432;49.786;22.760;2023-07-29T02:32:05;6.50;;;3.80;;
58661;SDS011;44432;49.786;22.760;2023-07-29T02:34:36;7.30;;;3.50;;
58661;SDS011;44432;49.786;22.760;2023-07-29T02:37:07;3.50;;;2.80;;
58661;SDS011;44432;49.786;22.760;2023-07-29T02:39:38;3.80;;;3.20;;
58661;SDS011;44432;49.786;22.760;2023-07-29T02:42:08;7.90;;;3.70;;
58661;SDS011;44432;49.786;22.760;2023-07-29T02:44:40;6.00;;;3.60;;
58661;SDS011;44432;49.786;22.760;2023-07-29T02:47:12;6.50;;;3.60;;
58661;SDS011;44432;49.786;22.760;2023-07-29T02:49:42;5.20;;;3.50;;
58661;SDS011;44432;49.786;22.760;2023-07-29T02:52:13;4.30;;;3.60;;
58661;SDS011;44432;49.786;22.760;2023-07-29T02:54:44;6.90;;;3.40;;
58661;SDS011;44432;49.786;22.760;2023-07-29T02:57:14;7.50;;;3.30;;
58661;SDS011;44432;49.786;22.760;2023-07-29T02:59:46;5.60;;;3.20;;
58661;SDS011;44432;49.786;22.760;2023-07-29T03:02:17;4.90;;;3.50;;
58661;SDS011;44432;49.786;22.760;2023-07-29T03:04:48;5.90;;;3.50;;
58661;SDS011;44432;49.786;22.760;2023-07-29T03:07:19;10.70;;;8.90;;
58661;SDS011;44432;49.786;22.760;2023-07-29T03:09:50;10.90;;;8.20;;
58661;SDS011;44432;49.786;22.760;2023-07-29T03:12:20;5.20;;;4.20;;
58661;SDS011;44432;49.786;22.760;2023-07-29T03:14:51;8.10;;;4.00;;
58661;SDS011;44432;49.786;22.760;2023-07-29T03:17:21;6.00;;;4.20;;
58661;SDS011;44432;49.786;22.760;2023-07-29T03:19:52;5.30;;;3.80;;
58661;SDS011;44432;49.786;22.760;2023-07-29T03:22:22;6.30;;;3.40;;
58661;SDS011;44432;49.786;22.760;2023-07-29T03:24:53;4.30;;;3.50;;
58661;SDS011;44432;49.786;22.760;2023-07-29T03:27:23;9.10;;;4.30;;
58661;SDS011;44432;49.786;22.760;2023-07-29T03:29:54;5.60;;;3.50;;
58661;SDS011;44432;49.786;22.760;2023-07-29T03:32:24;5.30;;;3.60;;
58661;SDS011;44432;49.786;22.760;2023-07-29T03:34:55;5.20;;;3.30;;
58661;SDS011;44432;49.786;22.760;2023-07-29T03:37:26;4.70;;;3.50;;
58661;SDS011;44432;49.786;22.760;2023-07-29T03:39:56;5.30;;;3.90;;
58661;SDS011;44432;49.786;22.760;2023-07-29T03:42:27;4.80;;;3.70;;
58661;SDS011;44432;49.786;22.760;2023-07-29T03:44:58;7.00;;;4.30;;
58661;SDS011;44432;49.786;22.760;2023-07-29T03:47:28;6.20;;;3.60;;
58661;SDS011;44432;49.786;22.760;2023-07-29T03:49:59;6.40;;;4.40;;
58661;SDS011;44432;49.786;22.760;2023-07-29T03:52:30;5.50;;;3.50;;
58661;SDS011;44432;49.786;22.760;2023-07-29T03:55:01;6.10;;;3.30;;
58661;SDS011;44432;49.786;22.760;2023-07-29T03:57:32;5.70;;;3.50;;
58661;SDS011;44432;49.786;22.760;2023-07-29T04:00:02;5.70;;;3.50;;
58661;SDS011;44432;49.786;22.760;2023-07-29T04:02:34;5.70;;;3.00;;
58661;SDS011;44432;49.786;22.760;2023-07-29T04:05:05;5.40;;;3.40;;
58661;SDS011;44432;49.786;22.760;2023-07-29T04:07:36;5.30;;;3.50;;
58661;SDS011;44432;49.786;22.760;2023-07-29T04:10:08;6.20;;;3.70;;
58661;SDS011;44432;49.786;22.760;2023-07-29T04:12:39;4.40;;;3.40;;
58661;SDS011;44432;49.786;22.760;2023-07-29T04:15:10;7.10;;;3.40;;
58661;SDS011;44432;49.786;22.760;2023-07-29T04:17:40;5.10;;;3.50;;
58661;SDS011;44432;49.786;22.760;2023-07-29T04:20:11;5.10;;;3.40;;
58661;SDS011;44432;49.786;22.760;2023-07-29T04:22:42;9.70;;;3.50;;
58661;SDS011;44432;49.786;22.760;2023-07-29T04:25:12;6.50;;;3.30;;
58661;SDS011;44432;49.786;22.760;2023-07-29T04:27:43;5.70;;;2.80;;
58661;SDS011;44432;49.786;22.760;2023-07-29T04:30:13;3.90;;;2.90;;
58661;SDS011;44432;49.786;22.760;2023-07-29T04:32:44;5.70;;;3.00;;
58661;SDS011;44432;49.786;22.760;2023-07-29T04:35:16;5.50;;;2.90;;
58661;SDS011;44432;49.786;22.760;2023-07-29T04:37:46;5.10;;;3.10;;
58661;SDS011;44432;49.786;22.760;2023-07-29T04:40:17;5.60;;;3.30;;
58661;SDS011;44432;49.786;22.760;2023-07-29T04:42:47;6.40;;;3.30;;
58661;SDS011;44432;49.786;22.760;2023-07-29T04:45:18;6.40;;;2.80;;
58661;SDS011;44432;49.786;22.760;2023-07-29T04:47:49;6.80;;;3.40;;
58661;SDS011;44432;49.786;22.760;2023-07-29T04:50:19;5.40;;;3.10;;
58661;SDS011;44432;49.786;22.760;2023-07-29T04:52:50;4.80;;;3.10;;
58661;SDS011;44432;49.786;22.760;2023-07-29T04:55:21;5.70;;;3.10;;
58661;SDS011;44432;49.786;22.760;2023-07-29T04:57:51;4.40;;;2.70;;
58661;SDS011;44432;49.786;22.760;2023-07-29T05:00:22;5.10;;;2.90;;
58661;SDS011;44432;49.786;22.760;2023-07-29T05:02:52;6.50;;;3.70;;
58661;SDS011;44432;49.786;22.760;2023-07-29T05:05:23;4.10;;;2.80;;
58661;SDS011;44432;49.786;22.760;2023-07-29T05:07:54;7.10;;;3.20;;
58661;SDS011;44432;49.786;22.760;2023-07-29T05:10:24;4.50;;;3.30;;
58661;SDS011;44432;49.786;22.760;2023-07-29T05:12:55;3.90;;;2.90;;
58661;SDS011;44432;49.786;22.760;2023-07-29T05:15:25;5.70;;;3.00;;
58661;SDS011;44432;49.786;22.760;2023-07-29T05:17:56;5.80;;;3.00;;
58661;SDS011;44432;49.786;22.760;2023-07-29T05:20:26;5.70;;;2.90;;
58661;SDS011;44432;49.786;22.760;2023-07-29T05:22:57;5.10;;;2.90;;
58661;SDS011;44432;49.786;22.760;2023-07-29T05:25:28;5.00;;;2.80;;
58661;SDS011;44432;49.786;22.760;2023-07-29T05:27:59;6.20;;;3.30;;
58661;SDS011;44432;49.786;22.760;2023-07-29T05:30:29;4.70;;;2.60;;
58661;SDS011;44432;49.786;22.760;2023-07-29T05:33:01;6.10;;;2.80;;
58661;SDS011;44432;49.786;22.760;2023-07-29T05:35:32;5.60;;;2.80;;
58661;SDS011;44432;49.786;22.760;2023-07-29T05:38:03;6.90;;;3.70;;
58661;SDS011;44432;49.786;22.760;2023-07-29T05:43:05;4.40;;;2.60;;
58661;SDS011;44432;49.786;22.760;2023-07-29T05:45:36;5.40;;;2.50;;
58661;SDS011;44432;49.786;22.760;2023-07-29T05:48:06;5.40;;;2.90;;
58661;SDS011;44432;49.786;22.760;2023-07-29T05:50:37;4.20;;;2.80;;
58661;SDS011;44432;49.786;22.760;2023-07-29T05:53:07;5.20;;;2.60;;
58661;SDS011;44432;49.786;22.760;2023-07-29T05:55:38;3.60;;;2.60;;
58661;SDS011;44432;49.786;22.760;2023-07-29T05:58:09;3.80;;;2.40;;
58661;SDS011;44432;49.786;22.760;2023-07-29T06:00:39;6.40;;;2.70;;
58661;SDS011;44432;49.786;22.760;2023-07-29T06:03:10;3.70;;;2.50;;
58661;SDS011;44432;49.786;22.760;2023-07-29T06:05:40;4.10;;;2.50;;
58661;SDS011;44432;49.786;22.760;2023-07-29T06:08:11;4.50;;;2.50;;
58661;SDS011;44432;49.786;22.760;2023-07-29T06:10:42;3.30;;;2.20;;
58661;SDS011;44432;49.786;22.760;2023-07-29T06:13:12;3.60;;;2.40;;
58661;SDS011;44432;49.786;22.760;2023-07-29T06:15:43;5.50;;;2.90;;
58661;SDS011;44432;49.786;22.760;2023-07-29T06:18:13;4.70;;;2.50;;
58661;SDS011;44432;49.786;22.760;2023-07-29T06:20:44;4.70;;;2.60;;
58661;SDS011;44432;49.786;22.760;2023-07-29T06:23:14;6.50;;;2.40;;
58661;SDS011;44432;49.786;22.760;2023-07-29T06:25:45;4.60;;;2.70;;
58661;SDS011;44432;49.786;22.760;2023-07-29T06:28:16;3.30;;;2.30;;
58661;SDS011;44432;49.786;22.760;2023-07-29T06:30:46;5.00;;;2.50;;
58661;SDS011;44432;49.786;22.760;2023-07-29T06:33:17;6.00;;;2.10;;
58661;SDS011;44432;49.786;22.760;2023-07-29T06:35:47;4.00;;;2.50;;
58661;SDS011;44432;49.786;22.760;2023-07-29T06:38:18;5.80;;;2.90;;
58661;SDS011;44432;49.786;22.760;2023-07-29T06:40:49;4.20;;;2.40;;
58661;SDS011;44432;49.786;22.760;2023-07-29T06:43:20;5.40;;;2.40;;
58661;SDS011;44432;49.786;22.760;2023-07-29T06:45:51;4.00;;;2.50;;
58661;SDS011;44432;49.786;22.760;2023-07-29T06:48:22;3.10;;;2.40;;
58661;SDS011;44432;49.786;22.760;2023-07-29T06:50:53;4.30;;;2.40;;
58661;SDS011;44432;49.786;22.760;2023-07-29T06:53:28;3.60;;;2.30;;
58661;SDS011;44432;49.786;22.760;2023-07-29T06:55:58;4.60;;;2.60;;
58661;SDS011;44432;49.786;22.760;2023-07-29T06:58:29;2.60;;;2.10;;
58661;SDS011;44432;49.786;22.760;2023-07-29T07:01:00;3.10;;;2.20;;
58661;SDS011;44432;49.786;22.760;2023-07-29T07:03:31;3.50;;;2.30;;
58661;SDS011;44432;49.786;22.760;2023-07-29T07:06:01;5.90;;;2.60;;
58661;SDS011;44432;49.786;22.760;2023-07-29T07:08:33;4.30;;;2.70;;
58661;SDS011;44432;49.786;22.760;2023-07-29T07:11:04;3.90;;;2.40;;
58661;SDS011;44432;49.786;22.760;2023-07-29T07:13:35;4.70;;;2.30;;
58661;SDS011;44432;49.786;22.760;2023-07-29T07:16:06;4.60;;;2.30;;
58661;SDS011;44432;49.786;22.760;2023-07-29T07:18:36;4.90;;;2.50;;
58661;SDS011;44432;49.786;22.760;2023-07-29T07:21:07;3.70;;;2.60;;
58661;SDS011;44432;49.786;22.760;2023-07-29T07:23:38;4.80;;;2.50;;
58661;SDS011;44432;49.786;22.760;2023-07-29T07:26:08;4.20;;;2.50;;
58661;SDS011;44432;49.786;22.760;2023-07-29T07:28:39;6.50;;;2.00;;
58661;SDS011;44432;49.786;22.760;2023-07-29T07:31:10;4.00;;;2.60;;
58661;SDS011;44432;49.786;22.760;2023-07-29T07:33:40;4.10;;;2.40;;
58661;SDS011;44432;49.786;22.760;2023-07-29T07:36:11;4.40;;;2.30;;
58661;SDS011;44432;49.786;22.760;2023-07-29T07:38:41;2.90;;;2.30;;
58661;SDS011;44432;49.786;22.760;2023-07-29T07:41:12;3.90;;;2.10;;
58661;SDS011;44432;49.786;22.760;2023-07-29T07:43:42;4.30;;;2.50;;
58661;SDS011;44432;49.786;22.760;2023-07-29T07:46:13;3.70;;;2.50;;
58661;SDS011;44432;49.786;22.760;2023-07-29T07:48:44;7.30;;;2.70;;
58661;SDS011;44432;49.786;22.760;2023-07-29T07:51:14;5.60;;;2.60;;
58661;SDS011;44432;49.786;22.760;2023-07-29T07:53:45;4.00;;;2.20;;
58661;SDS011;44432;49.786;22.760;2023-07-29T07:56:16;3.90;;;2.20;;
58661;SDS011;44432;49.786;22.760;2023-07-29T07:58:46;3.80;;;2.40;;
58661;SDS011;44432;49.786;22.760;2023-07-29T08:01:17;4.30;;;2.30;;
58661;SDS011;44432;49.786;22.760;2023-07-29T08:03:48;5.70;;;2.60;;
58661;SDS011;44432;49.786;22.760;2023-07-29T08:06:18;3.70;;;2.20;;
58661;SDS011;44432;49.786;22.760;2023-07-29T08:08:49;5.60;;;2.10;;
58661;SDS011;44432;49.786;22.760;2023-07-29T08:11:20;4.90;;;3.50;;
58661;SDS011;44432;49.786;22.760;2023-07-29T08:13:51;3.60;;;2.30;;
58661;SDS011;44432;49.786;22.760;2023-07-29T08:16:21;5.20;;;4.50;;
58661;SDS011;44432;49.786;22.760;2023-07-29T08:18:52;4.80;;;2.40;;
58661;SDS011;44432;49.786;22.760;2023-07-29T08:21:23;7.90;;;2.10;;
58661;SDS011;44432;49.786;22.760;2023-07-29T08:23:55;4.70;;;2.40;;
58661;SDS011;44432;49.786;22.760;2023-07-29T08:26:25;6.10;;;2.80;;
58661;SDS011;44432;49.786;22.760;2023-07-29T08:28:56;2.60;;;2.40;;
58661;SDS011;44432;49.786;22.760;2023-07-29T08:31:26;3.20;;;2.00;;
58661;SDS011;44432;49.786;22.760;2023-07-29T08:33:58;2.70;;;1.90;;
58661;SDS011;44432;49.786;22.760;2023-07-29T08:36:29;5.50;;;2.20;;
58661;SDS011;44432;49.786;22.760;2023-07-29T08:38:59;4.50;;;2.40;;
58661;SDS011;44432;49.786;22.760;2023-07-29T08:41:31;4.70;;;2.20;;
58661;SDS011;44432;49.786;22.760;2023-07-29T08:44:09;4.70;;;2.40;;
58661;SDS011;44432;49.786;22.760;2023-07-29T08:46:41;6.60;;;2.20;;
58661;SDS011;44432;49.786;22.760;2023-07-29T08:49:12;6.00;;;2.20;;
58661;SDS011;44432;49.786;22.760;2023-07-29T08:51:47;6.60;;;2.10;;
58661;SDS011;44432;49.786;22.760;2023-07-29T08:54:18;5.50;;;2.10;;
58661;SDS011;44432;49.786;22.760;2023-07-29T08:56:49;3.90;;;2.00;;
58661;SDS011;44432;49.786;22.760;2023-07-29T08:59:20;5.50;;;2.00;;
58661;SDS011;44432;49.786;22.760;2023-07-29T09:01:52;2.80;;;2.00;;
58661;SDS011;44432;49.786;22.760;2023-07-29T09:04:24;3.30;;;2.10;;
58661;SDS011;44432;49.786;22.760;2023-07-29T09:06:56;3.40;;;2.30;;
58661;SDS011;44432;49.786;22.760;2023-07-29T09:09:29;5.60;;;2.20;;
58661;SDS011;44432;49.786;22.760;2023-07-29T09:11:59;2.20;;;1.90;;
58661;SDS011;44432;49.786;22.760;2023-07-29T09:14:30;4.90;;;2.40;;
58661;SDS011;44432;49.786;22.760;2023-07-29T09:17:00;3.90;;;2.40;;
58661;SDS011;44432;49.786;22.760;2023-07-29T09:19:34;4.20;;;2.20;;
58661;SDS011;44432;49.786;22.760;2023-07-29T09:22:05;4.60;;;1.90;;
58661;SDS011;44432;49.786;22.760;2023-07-29T09:24:45;3.30;;;2.30;;
58661;SDS011;44432;49.786;22.760;2023-07-29T09:27:25;3.10;;;2.00;;
58661;SDS011;44432;49.786;22.760;2023-07-29T09:29:59;3.90;;;2.20;;
58661;SDS011;44432;49.786;22.760;2023-07-29T09:32:31;4.70;;;2.50;;
58661;SDS011;44432;49.786;22.760;2023-07-29T09:35:01;4.80;;;1.80;;
58661;SDS011;44432;49.786;22.760;2023-07-29T09:37:39;4.30;;;2.40;;
58661;SDS011;44432;49.786;22.760;2023-07-29T09:40:13;3.90;;;2.00;;
58661;SDS011;44432;49.786;22.760;2023-07-29T09:42:51;3.30;;;1.80;;
58661;SDS011;44432;49.786;22.760;2023-07-29T09:45:24;6.10;;;2.20;;
58661;SDS011;44432;49.786;22.760;2023-07-29T09:47:56;4.90;;;2.60;;
58661;SDS011;44432;49.786;22.760;2023-07-29T09:50:27;3.30;;;1.50;;
58661;SDS011;44432;49.786;22.760;2023-07-29T09:52:58;4.70;;;2.00;;
58661;SDS011;44432;49.786;22.760;2023-07-29T09:55:32;6.50;;;2.10;;
58661;SDS011;44432;49.786;22.760;2023-07-29T09:58:03;5.20;;;3.40;;
58661;SDS011;44432;49.786;22.760;2023-07-29T10:00:35;3.90;;;1.80;;
58661;SDS011;44432;49.786;22.760;2023-07-29T10:03:06;4.60;;;2.40;;
58661;SDS011;44432;49.786;22.760;2023-07-29T10:05:37;5.90;;;2.50;;
58661;SDS011;44432;49.786;22.760;2023-07-29T10:08:08;2.70;;;1.80;;
58661;SDS011;44432;49.786;22.760;2023-07-29T10:10:40;2.70;;;1.80;;
58661;SDS011;44432;49.786;22.760;2023-07-29T10:13:12;2.60;;;1.80;;
58661;SDS011;44432;49.786;22.760;2023-07-29T10:15:43;4.00;;;1.70;;
58661;SDS011;44432;49.786;22.760;2023-07-29T10:18:14;4.00;;;1.70;;
58661;SDS011;44432;49.786;22.760;2023-07-29T10:20:47;2.60;;;2.00;;
58661;SDS011;44432;49.786;22.760;2023-07-29T10:23:19;2.70;;;1.90;;
58661;SDS011;44432;49.786;22.760;2023-07-29T10:25:54;2.50;;;1.80;;
58661;SDS011;44432;49.786;22.760;2023-07-29T10:28:29;3.10;;;2.00;;
58661;SDS011;44432;49.786;22.760;2023-07-29T10:31:02;3.00;;;1.50;;
58661;SDS011;44432;49.786;22.760;2023-07-29T10:33:34;4.00;;;1.80;;
58661;SDS011;44432;49.786;22.760;2023-07-29T10:36:06;2.70;;;1.70;;
58661;SDS011;44432;49.786;22.760;2023-07-29T10:38:37;3.40;;;2.60;;
58661;SDS011;44432;49.786;22.760;2023-07-29T10:41:09;2.60;;;1.90;;
58661;SDS011;44432;49.786;22.760;2023-07-29T10:43:40;2.50;;;1.70;;
58661;SDS011;44432;49.786;22.760;2023-07-29T10:46:16;4.30;;;2.00;;
58661;SDS011;44432;49.786;22.760;2023-07-29T10:48:53;3.20;;;1.90;;
58661;SDS011;44432;49.786;22.760;2023-07-29T10:51:25;3.80;;;1.90;;
58661;SDS011;44432;49.786;22.760;2023-07-29T10:54:02;5.50;;;1.80;;
58661;SDS011;44432;49.786;22.760;2023-07-29T10:56:40;3.70;;;1.80;;
58661;SDS011;44432;49.786;22.760;2023-07-29T10:59:31;6.60;;;1.60;;
58661;SDS011;44432;49.786;22.760;2023-07-29T11:02:03;5.10;;;1.80;;
58661;SDS011;44432;49.786;22.760;2023-07-29T11:04:49;3.40;;;1.50;;
58661;SDS011;44432;49.786;22.760;2023-07-29T11:07:24;2.30;;;1.80;;
58661;SDS011;44432;49.786;22.760;2023-07-29T11:10:00;3.10;;;1.50;;
58661;SDS011;44432;49.786;22.760;2023-07-29T11:12:35;3.50;;;2.10;;
58661;SDS011;44432;49.786;22.760;2023-07-29T11:15:13;2.60;;;1.80;;
58661;SDS011;44432;49.786;22.760;2023-07-29T11:17:54;3.40;;;1.60;;
58661;SDS011;44432;49.786;22.760;2023-07-29T11:20:26;2.50;;;1.60;;
58661;SDS011;44432;49.786;22.760;2023-07-29T11:22:59;3.10;;;1.90;;
58661;SDS011;44432;49.786;22.760;2023-07-29T11:25:31;5.30;;;2.00;;
58661;SDS011;44432;49.786;22.760;2023-07-29T11:28:03;4.30;;;2.10;;
58661;SDS011;44432;49.786;22.760;2023-07-29T11:30:34;3.30;;;1.50;;
58661;SDS011;44432;49.786;22.760;2023-07-29T11:33:13;4.30;;;1.70;;
58661;SDS011;44432;49.786;22.760;2023-07-29T11:35:46;5.60;;;2.00;;
58661;SDS011;44432;49.786;22.760;2023-07-29T11:38:16;2.00;;;1.40;;
58661;SDS011;44432;49.786;22.760;2023-07-29T11:40:55;3.30;;;1.20;;
58661;SDS011;44432;49.786;22.760;2023-07-29T11:43:27;4.80;;;1.30;;
58661;SDS011;44432;49.786;22.760;2023-07-29T11:45:58;2.10;;;1.40;;
58661;SDS011;44432;49.786;22.760;2023-07-29T11:48:31;5.60;;;2.10;;
58661;SDS011;44432;49.786;22.760;2023-07-29T11:51:02;6.10;;;1.50;;
58661;SDS011;44432;49.786;22.760;2023-07-29T11:53:33;2.20;;;1.60;;
58661;SDS011;44432;49.786;22.760;2023-07-29T11:56:03;2.70;;;1.60;;
58661;SDS011;44432;49.786;22.760;2023-07-29T11:58:34;4.10;;;2.00;;
58661;SDS011;44432;49.786;22.760;2023-07-29T12:01:05;2.90;;;1.70;;
58661;SDS011;44432;49.786;22.760;2023-07-29T12:03:36;5.80;;;1.80;;
58661;SDS011;44432;49.786;22.760;2023-07-29T12:06:07;2.80;;;2.00;;
58661;SDS011;44432;49.786;22.760;2023-07-29T12:08:38;3.50;;;1.80;;
58661;SDS011;44432;49.786;22.760;2023-07-29T12:11:09;1.80;;;1.40;;
58661;SDS011;44432;49.786;22.760;2023-07-29T12:13:41;1.30;;;1.20;;
58661;SDS011;44432;49.786;22.760;2023-07-29T12:16:15;2.00;;;1.50;;
58661;SDS011;44432;49.786;22.760;2023-07-29T12:18:46;2.00;;;1.50;;
58661;SDS011;44432;49.786;22.760;2023-07-29T12:21:18;2.00;;;1.30;;
58661;SDS011;44432;49.786;22.760;2023-07-29T12:23:51;4.80;;;1.50;;
58661;SDS011;44432;49.786;22.760;2023-07-29T12:26:21;1.90;;;1.50;;
58661;SDS011;44432;49.786;22.760;2023-07-29T12:28:57;3.70;;;1.40;;
58661;SDS011;44432;49.786;22.760;2023-07-29T12:31:31;3.50;;;1.90;;
58661;SDS011;44432;49.786;22.760;2023-07-29T12:34:06;2.10;;;1.40;;
58661;SDS011;44432;49.786;22.760;2023-07-29T12:36:44;5.90;;;1.90;;
58661;SDS011;44432;49.786;22.760;2023-07-29T12:39:20;4.80;;;1.70;;
58661;SDS011;44432;49.786;22.760;2023-07-29T12:41:53;5.40;;;2.00;;
58661;SDS011;44432;49.786;22.760;2023-07-29T12:44:24;1.90;;;1.60;;
58661;SDS011;44432;49.786;22.760;2023-07-29T12:46:56;2.20;;;1.60;;
58661;SDS011;44432;49.786;22.760;2023-07-29T12:49:26;2.60;;;1.70;;
58661;SDS011;44432;49.786;22.760;2023-07-29T12:51:57;3.50;;;2.00;;
58661;SDS011;44432;49.786;22.760;2023-07-29T12:54:28;3.60;;;1.80;;
58661;SDS011;44432;49.786;22.760;2023-07-29T12:56:59;2.40;;;1.80;;
58661;SDS011;44432;49.786;22.760;2023-07-29T12:59:29;6.20;;;1.70;;
58661;SDS011;44432;49.786;22.760;2023-07-29T13:02:00;2.50;;;1.80;;
58661;SDS011;44432;49.786;22.760;2023-07-29T13:04:30;3.60;;;1.90;;
58661;SDS011;44432;49.786;22.760;2023-07-29T13:07:01;2.70;;;1.70;;
58661;SDS011;44432;49.786;22.760;2023-07-29T13:09:33;4.40;;;2.00;;
58661;SDS011;44432;49.786;22.760;2023-07-29T13:12:04;3.70;;;2.30;;
58661;SDS011;44432;49.786;22.760;2023-07-29T13:14:35;2.30;;;2.00;;
58661;SDS011;44432;49.786;22.760;2023-07-29T13:17:06;5.80;;;3.80;;
58661;SDS011;44432;49.786;22.760;2023-07-29T13:19:37;8.90;;;5.60;;
58661;SDS011;44432;49.786;22.760;2023-07-29T13:22:07;6.40;;;4.60;;
58661;SDS011;44432;49.786;22.760;2023-07-29T13:24:38;4.00;;;2.50;;
58661;SDS011;44432;49.786;22.760;2023-07-29T13:27:09;3.90;;;2.50;;
58661;SDS011;44432;49.786;22.760;2023-07-29T13:29:40;3.30;;;2.50;;
58661;SDS011;44432;49.786;22.760;2023-07-29T13:32:11;2.30;;;1.80;;
58661;SDS011;44432;49.786;22.760;2023-07-29T13:34:41;2.70;;;1.90;;
58661;SDS011;44432;49.786;22.760;2023-07-29T13:37:12;2.70;;;1.80;;
58661;SDS011;44432;49.786;22.760;2023-07-29T13:39:43;4.00;;;1.90;;
58661;SDS011;44432;49.786;22.760;2023-07-29T13:42:14;4.90;;;1.70;;
58661;SDS011;44432;49.786;22.760;2023-07-29T13:44:45;6.90;;;1.90;;
58661;SDS011;44432;49.786;22.760;2023-07-29T13:47:15;3.10;;;2.00;;
58661;SDS011;44432;49.786;22.760;2023-07-29T13:49:46;5.50;;;2.10;;
58661;SDS011;44432;49.786;22.760;2023-07-29T13:52:17;3.20;;;1.60;;
58661;SDS011;44432;49.786;22.760;2023-07-29T13:54:47;2.60;;;2.10;;
58661;SDS011;44432;49.786;22.760;2023-07-29T13:57:18;3.10;;;1.90;;
58661;SDS011;44432;49.786;22.760;2023-07-29T13:59:49;2.90;;;1.80;;
58661;SDS011;44432;49.786;22.760;2023-07-29T14:02:19;5.10;;;2.00;;
58661;SDS011;44432;49.786;22.760;2023-07-29T14:04:50;3.50;;;2.30;;
58661;SDS011;44432;49.786;22.760;2023-07-29T14:07:21;4.10;;;1.90;;
58661;SDS011;44432;49.786;22.760;2023-07-29T14:09:52;4.60;;;1.90;;
58661;SDS011;44432;49.786;22.760;2023-07-29T14:12:22;2.70;;;1.80;;
58661;SDS011;44432;49.786;22.760;2023-07-29T14:14:53;3.80;;;2.20;;
58661;SDS011;44432;49.786;22.760;2023-07-29T14:17:24;5.90;;;2.20;;
58661;SDS011;44432;49.786;22.760;2023-07-29T14:19:54;4.20;;;2.10;;
58661;SDS011;44432;49.786;22.760;2023-07-29T14:22:25;3.80;;;2.40;;
58661;SDS011;44432;49.786;22.760;2023-07-29T14:24:56;2.40;;;2.00;;
58661;SDS011;44432;49.786;22.760;2023-07-29T14:27:26;5.30;;;2.30;;
58661;SDS011;44432;49.786;22.760;2023-07-29T14:29:57;3.10;;;2.10;;
58661;SDS011;44432;49.786;22.760;2023-07-29T14:32:27;3.80;;;2.50;;
58661;SDS011;44432;49.786;22.760;2023-07-29T14:34:58;3.50;;;2.20;;
58661;SDS011;44432;49.786;22.760;2023-07-29T14:37:31;3.90;;;2.00;;
58661;SDS011;44432;49.786;22.760;2023-07-29T14:40:02;5.80;;;2.10;;
58661;SDS011;44432;49.786;22.760;2023-07-29T14:42:33;3.90;;;2.90;;
58661;SDS011;44432;49.786;22.760;2023-07-29T14:45:05;4.10;;;2.50;;
58661;SDS011;44432;49.786;22.760;2023-07-29T14:47:36;10.20;;;6.50;;
58661;SDS011;44432;49.786;22.760;2023-07-29T14:50:07;5.70;;;3.90;;
58661;SDS011;44432;49.786;22.760;2023-07-29T14:52:38;4.90;;;3.60;;
58661;SDS011;44432;49.786;22.760;2023-07-29T14:55:08;6.10;;;3.80;;
58661;SDS011;44432;49.786;22.760;2023-07-29T14:57:39;5.00;;;2.90;;
58661;SDS011;44432;49.786;22.760;2023-07-29T15:00:11;4.90;;;2.80;;